Terminal Aerodrome Forecast
Issued by NWS

Home | Current Version | Previous Version | Text Only | Print | Product List | Glossary On
Versions: 1 2 3 4 5 6 7 8 9 10 11 12 13 14 15 16 17 18 19 20 21 22 23 24 25 26 27 28 29 30 31 32
000
FTUS45 KGJT 032336
TAFASE
TAF
KASE 032336Z 0400/0424 VRB05KT P6SM VCTS SCT070CB BKN150
     FM040200 18010KT P6SM VCSH SCT080 BKN150
     FM040600 21004KT P6SM SCT150
     FM041600 36008KT P6SM FEW080 SCT200
     FM042000 33006G15KT P6SM VCSH SCT080 BKN150=

USA.gov is the U.S. government's official web portal to all federal, state and local government web resources and services.